createdAt,value
2019-05-09T00:00:07.169Z,44.19
2019-05-09T00:02:43.605Z,44.21
2019-05-09T00:05:17.275Z,43.92
2019-05-09T00:07:53.197Z,44.44
2019-05-09T00:10:38.489Z,44.46
2019-05-09T00:13:03.513Z,44.57
2019-05-09T00:15:37.607Z,44.63
2019-05-09T00:18:11.071Z,44.22
2019-05-09T00:21:03.999Z,44.52
2019-05-09T00:23:37.345Z,44.63
2019-05-09T00:26:10.665Z,44.58
2019-05-09T00:28:46.157Z,44.77
2019-05-09T00:31:30.926Z,44.86
2019-05-09T00:34:09.410Z,44.59
2019-05-09T00:36:43.875Z,44.80
2019-05-09T00:39:18.031Z,44.69
2019-05-09T00:41:53.867Z,45.21
2019-05-09T00:44:29.561Z,45.30
2019-05-09T00:47:23.846Z,45.01
2019-05-09T00:49:57.740Z,45.63
2019-05-09T00:52:33.776Z,45.18
2019-05-09T00:55:07.193Z,45.22
2019-05-09T00:57:41.305Z,45.27
2019-05-09T01:00:17.155Z,45.63
2019-05-09T01:02:51.429Z,45.17
2019-05-09T01:05:25.305Z,45.54
2019-05-09T01:07:59.311Z,45.41
2019-05-09T01:10:34.254Z,45.30
2019-05-09T01:13:07.990Z,45.70
2019-05-09T01:15:41.179Z,45.07
2019-05-09T01:18:15.157Z,45.71
2019-05-09T01:20:48.493Z,45.42
2019-05-09T01:23:23.416Z,45.53
2019-05-09T01:25:57.631Z,45.48
2019-05-09T01:28:33.968Z,45.88
2019-05-09T01:31:07.559Z,45.48
2019-05-09T01:33:53.294Z,45.64
2019-05-09T01:36:28.121Z,45.83
2019-05-09T01:39:03.262Z,45.76
2019-05-09T01:41:37.644Z,45.96
2019-05-09T01:44:13.393Z,46.39
2019-05-09T01:46:47.722Z,45.88
2019-05-09T01:49:23.279Z,46.48
2019-05-09T01:51:57.797Z,46.17
2019-05-09T01:54:33.232Z,46.37
2019-05-09T01:57:07.323Z,46.68
2019-05-09T01:59:40.438Z,46.50
2019-05-09T02:02:14.525Z,46.27
2019-05-09T02:04:48.629Z,46.79
2019-05-09T02:07:23.742Z,46.84
2019-05-09T02:09:57.817Z,46.94
2019-05-09T02:12:31.021Z,47.05
2019-05-09T02:15:20.063Z,46.81
2019-05-09T02:18:04.777Z,46.38
2019-05-09T02:20:37.189Z,46.97
2019-05-09T02:23:11.464Z,46.77
2019-05-09T02:25:45.709Z,46.81
2019-05-09T02:28:19.665Z,46.91
2019-05-09T02:30:55.028Z,47.23
2019-05-09T02:33:28.550Z,47.21
2019-05-09T02:36:02.374Z,47.11
2019-05-09T02:38:39.174Z,47.72
2019-05-09T02:41:12.446Z,47.18
2019-05-09T02:43:49.265Z,47.49
2019-05-09T02:46:39.261Z,47.11
2019-05-09T02:49:13.163Z,47.45
2019-05-09T02:51:48.769Z,47.44
2019-05-09T02:54:22.911Z,46.99
2019-05-09T02:56:58.099Z,47.87
2019-05-09T02:59:33.175Z,47.69
2019-05-09T03:02:11.364Z,47.69
2019-05-09T03:04:45.531Z,47.41
2019-05-09T03:07:20.367Z,48.30
2019-05-09T03:09:54.675Z,48.11
2019-05-09T03:12:34.637Z,47.61
2019-05-09T03:15:05.573Z,48.29
2019-05-09T03:17:39.583Z,48.60
2019-05-09T03:20:30.211Z,47.95
2019-05-09T03:23:04.255Z,47.82
2019-05-09T03:25:40.534Z,48.35
2019-05-09T03:28:14.510Z,48.27
2019-05-09T03:30:59.183Z,48.33
2019-05-09T03:33:35.468Z,48.81
2019-05-09T03:36:08.097Z,48.18
2019-05-09T03:38:41.206Z,48.37
2019-05-09T03:41:17.579Z,48.37
2019-05-09T03:43:50.991Z,48.57
2019-05-09T03:46:34.979Z,48.19
2019-05-09T03:49:13.644Z,48.22
2019-05-09T03:51:48.213Z,48.28
2019-05-09T03:54:22.447Z,48.45
2019-05-09T03:56:57.343Z,48.17
2019-05-09T03:59:31.308Z,48.37
2019-05-09T04:02:04.738Z,48.24
2019-05-09T04:04:38.668Z,48.19
2019-05-09T04:07:12.706Z,48.00
2019-05-09T04:09:47.850Z,48.06
2019-05-09T04:12:20.737Z,47.94
2019-05-09T04:14:54.681Z,48.25
2019-05-09T04:17:29.766Z,47.66
2019-05-09T04:20:04.117Z,47.82
2019-05-09T04:22:38.623Z,48.00
2019-05-09T04:25:18.108Z,47.65
2019-05-09T04:27:53.071Z,47.78
2019-05-09T04:30:27.512Z,47.52
2019-05-09T04:33:01.431Z,47.67
2019-05-09T04:35:35.605Z,47.48
2019-05-09T04:38:09.612Z,47.46
2019-05-09T04:40:44.741Z,47.28
2019-05-09T04:43:26.903Z,47.34
2019-05-09T04:45:57.951Z,47.21
2019-05-09T04:48:37.595Z,47.27
2019-05-09T04:51:11.843Z,47.39
2019-05-09T04:53:45.124Z,47.20
2019-05-09T04:56:20.777Z,47.24
2019-05-09T04:58:54.905Z,47.30
2019-05-09T05:01:38.772Z,47.49
2019-05-09T05:04:11.752Z,47.23
2019-05-09T05:06:47.781Z,47.26
2019-05-09T05:09:21.780Z,47.48
2019-05-09T05:11:57.986Z,47.33
2019-05-09T05:14:31.421Z,47.24
2019-05-09T05:17:10.190Z,47.29
2019-05-09T05:19:41.177Z,47.29
2019-05-09T05:22:18.120Z,47.23
2019-05-09T05:24:55.704Z,47.31
2019-05-09T05:27:29.089Z,47.17
2019-05-09T05:30:02.416Z,47.23
2019-05-09T05:32:38.605Z,47.21
2019-05-09T05:35:20.499Z,47.27
2019-05-09T05:37:54.486Z,47.06
2019-05-09T05:40:32.967Z,47.00
2019-05-09T05:43:04.669Z,47.05
2019-05-09T05:45:40.260Z,47.08
2019-05-09T05:48:17.537Z,47.03
2019-05-09T05:50:51.590Z,46.96
2019-05-09T05:53:27.617Z,46.87
2019-05-09T05:56:01.485Z,46.83
2019-05-09T05:58:35.742Z,46.84
2019-05-09T06:01:09.863Z,46.82
2019-05-09T06:03:43.266Z,46.75
2019-05-09T06:06:17.595Z,46.55
2019-05-09T06:08:51.925Z,46.61
2019-05-09T06:11:28.153Z,46.41
2019-05-09T06:14:08.704Z,46.35
2019-05-09T06:16:37.838Z,46.35
2019-05-09T06:19:11.966Z,46.17
2019-05-09T06:21:45.271Z,45.84
2019-05-09T06:24:19.421Z,46.11
2019-05-09T06:26:53.517Z,46.06
2019-05-09T06:29:28.565Z,46.09
2019-05-09T06:32:02.398Z,46.03
2019-05-09T06:34:39.637Z,46.06
2019-05-09T06:37:11.757Z,45.95
2019-05-09T06:39:45.022Z,45.64
2019-05-09T06:42:19.209Z,45.79
2019-05-09T06:45:03.319Z,45.64
2019-05-09T06:47:38.984Z,45.57
2019-05-09T06:50:18.458Z,45.50
2019-05-09T06:52:52.524Z,45.55
2019-05-09T06:55:27.637Z,45.29
2019-05-09T06:58:04.018Z,45.35
2019-05-09T07:00:39.743Z,45.13
2019-05-09T07:03:18.555Z,45.18
2019-05-09T07:05:54.470Z,44.95
2019-05-09T07:08:39.449Z,44.88
2019-05-09T07:11:13.658Z,44.88
2019-05-09T07:13:47.795Z,44.92
2019-05-09T07:16:20.984Z,44.79
2019-05-09T07:18:54.981Z,44.67
2019-05-09T07:21:48.502Z,44.78
2019-05-09T07:24:22.665Z,44.68
2019-05-09T07:26:55.816Z,44.77
2019-05-09T07:29:31.455Z,44.60
2019-05-09T07:32:07.667Z,44.70
2019-05-09T07:34:47.411Z,44.00
2019-05-09T07:37:21.901Z,44.07
2019-05-09T07:39:57.730Z,44.08
2019-05-09T07:42:31.810Z,43.66
2019-05-09T07:45:09.114Z,44.29
2019-05-09T07:47:43.276Z,44.08
2019-05-09T07:50:18.984Z,43.86
2019-05-09T07:52:52.648Z,43.59
2019-05-09T07:55:27.552Z,43.62
2019-05-09T07:58:01.668Z,43.68
2019-05-09T08:00:35.241Z,43.68
2019-05-09T08:03:13.032Z,42.69
2019-05-09T08:05:45.093Z,42.97
2019-05-09T08:08:18.753Z,42.54
2019-05-09T08:10:52.822Z,42.63
2019-05-09T08:13:28.783Z,42.91
2019-05-09T08:16:00.947Z,42.43
2019-05-09T08:18:37.444Z,42.88
2019-05-09T08:21:10.751Z,41.95
2019-05-09T08:23:44.797Z,42.32
2019-05-09T08:26:19.131Z,41.81
2019-05-09T08:28:53.217Z,41.89
2019-05-09T08:31:28.062Z,41.61
2019-05-09T08:34:02.289Z,41.55
2019-05-09T08:36:38.329Z,41.37
2019-05-09T08:39:12.202Z,41.66
2019-05-09T08:41:48.523Z,41.04
2019-05-09T08:44:21.879Z,39.75
2019-05-09T08:46:57.405Z,40.26
2019-05-09T08:49:39.159Z,40.04
2019-05-09T08:52:16.342Z,39.42
2019-05-09T08:54:51.960Z,39.46
2019-05-09T08:57:28.641Z,39.17
2019-05-09T09:00:01.806Z,39.89
2019-05-09T09:02:34.996Z,39.69
2019-05-09T09:05:09.150Z,39.79
2019-05-09T09:07:42.280Z,39.25
2019-05-09T09:10:18.710Z,38.92
2019-05-09T09:12:52.239Z,38.52
2019-05-09T09:15:50.088Z,38.74
2019-05-09T09:18:01.897Z,38.23
2019-05-09T09:20:37.986Z,39.12
2019-05-09T09:23:11.746Z,37.19
2019-05-09T09:25:45.688Z,38.97
2019-05-09T09:28:20.092Z,37.59
2019-05-09T09:30:54.119Z,38.06
2019-05-09T09:33:28.104Z,37.90
2019-05-09T09:36:02.275Z,37.96
2019-05-09T09:38:37.571Z,37.17
2019-05-09T09:41:11.486Z,36.75
2019-05-09T09:43:47.650Z,37.60
2019-05-09T09:46:21.347Z,37.26
2019-05-09T09:48:55.251Z,37.16
2019-05-09T09:51:29.383Z,36.37
2019-05-09T09:54:02.710Z,37.17
2019-05-09T09:56:38.622Z,36.51
2019-05-09T09:59:14.117Z,36.25
2019-05-09T10:02:01.236Z,36.75
2019-05-09T10:04:37.540Z,35.86
2019-05-09T10:07:11.157Z,35.36
2019-05-09T10:09:44.592Z,36.80
2019-05-09T10:12:19.060Z,36.23
2019-05-09T10:14:57.854Z,34.84
2019-05-09T10:17:47.688Z,36.05
2019-05-09T10:20:29.109Z,36.46
2019-05-09T10:23:11.136Z,36.32
2019-05-09T10:25:38.363Z,36.87
2019-05-09T10:28:12.350Z,35.80
2019-05-09T10:30:48.491Z,35.63
2019-05-09T10:33:22.914Z,36.10
2019-05-09T10:36:03.687Z,36.81
2019-05-09T10:38:33.097Z,36.44
2019-05-09T10:41:10.997Z,36.66
2019-05-09T10:43:50.332Z,36.89
2019-05-09T10:46:51.360Z,36.62
2019-05-09T10:49:13.834Z,36.56
2019-05-09T10:51:48.524Z,36.31
2019-05-09T10:54:22.716Z,36.60
2019-05-09T10:56:57.994Z,36.58
2019-05-09T10:59:31.034Z,35.95
2019-05-09T11:02:05.006Z,36.60
2019-05-09T11:04:42.928Z,36.56
2019-05-09T11:07:14.830Z,36.51
2019-05-09T11:09:48.923Z,36.51
2019-05-09T11:12:22.292Z,36.53
2019-05-09T11:14:59.120Z,36.52
2019-05-09T11:17:31.859Z,36.59
2019-05-09T11:20:09.101Z,36.40
2019-05-09T11:22:43.051Z,36.73
2019-05-09T11:25:17.245Z,36.72
2019-05-09T11:28:06.937Z,36.93
2019-05-09T11:30:28.159Z,36.80
2019-05-09T11:33:02.283Z,36.77
2019-05-09T11:35:37.974Z,36.77
2019-05-09T11:38:12.518Z,36.78
2019-05-09T11:40:48.335Z,37.03
2019-05-09T11:43:22.638Z,36.87
2019-05-09T11:45:58.626Z,36.60
2019-05-09T11:48:32.488Z,36.53
2019-05-09T11:51:08.830Z,36.49
2019-05-09T11:53:42.489Z,36.77
2019-05-09T11:56:17.704Z,36.70
2019-05-09T11:58:51.508Z,36.76
2019-05-09T12:01:25.575Z,36.85
2019-05-09T12:03:58.739Z,36.77
2019-05-09T12:06:32.959Z,36.71
2019-05-09T12:09:09.058Z,37.05
2019-05-09T12:11:44.649Z,36.55
2019-05-09T12:14:18.747Z,36.79
2019-05-09T12:16:51.880Z,36.66
2019-05-09T12:19:29.317Z,36.72
2019-05-09T12:22:02.118Z,36.84
2019-05-09T12:24:38.430Z,36.84
2019-05-09T12:27:11.929Z,37.27
2019-05-09T12:29:48.331Z,36.98
2019-05-09T12:32:21.883Z,37.13
2019-05-09T12:34:57.585Z,37.20
2019-05-09T12:37:31.035Z,37.23
2019-05-09T12:40:07.688Z,36.71
2019-05-09T12:42:42.118Z,37.24
2019-05-09T12:45:18.033Z,37.42
2019-05-09T12:48:06.048Z,37.39
2019-05-09T12:50:29.401Z,37.13
2019-05-09T12:53:03.693Z,36.95
2019-05-09T12:55:38.519Z,37.37
2019-05-09T12:58:27.969Z,37.16
2019-05-09T13:01:03.381Z,37.14
2019-05-09T13:03:38.256Z,37.28
2019-05-09T13:06:12.398Z,37.10
2019-05-09T13:08:47.983Z,37.49
2019-05-09T13:11:22.253Z,37.56
2019-05-09T13:13:55.340Z,37.71
2019-05-09T13:16:50.680Z,37.90
2019-05-09T13:19:41.057Z,38.07
2019-05-09T13:22:15.063Z,38.27
2019-05-09T13:24:48.999Z,38.42
2019-05-09T13:27:22.997Z,38.38
2019-05-09T13:29:56.937Z,38.48
2019-05-09T13:32:30.895Z,38.62
2019-05-09T13:35:05.872Z,38.84
2019-05-09T13:37:40.191Z,38.94
2019-05-09T13:40:18.825Z,39.08
2019-05-09T13:42:52.064Z,39.20
2019-05-09T13:45:25.240Z,39.40
2019-05-09T13:47:59.375Z,39.39
2019-05-09T13:50:33.527Z,39.44
2019-05-09T13:53:07.733Z,39.74
2019-05-09T13:55:41.761Z,39.73
2019-05-09T13:58:15.662Z,40.10
2019-05-09T14:00:59.290Z,40.23
2019-05-09T14:03:28.114Z,40.49
2019-05-09T14:06:01.809Z,40.52
2019-05-09T14:08:38.790Z,40.74
2019-05-09T14:11:11.538Z,40.71
2019-05-09T14:13:45.418Z,40.98
2019-05-09T14:16:22.364Z,40.60
2019-05-09T14:18:55.868Z,40.78
2019-05-09T14:21:30.715Z,40.90
2019-05-09T14:24:14.210Z,41.30
2019-05-09T14:26:39.242Z,41.58
2019-05-09T14:29:13.547Z,41.54
2019-05-09T14:31:47.652Z,41.53
2019-05-09T14:34:21.749Z,41.59
2019-05-09T14:36:58.458Z,41.88
2019-05-09T14:39:31.613Z,41.75
2019-05-09T14:42:09.072Z,42.21
2019-05-09T14:44:41.983Z,42.26
2019-05-09T14:47:17.716Z,42.45
2019-05-09T14:49:51.966Z,42.49
2019-05-09T14:52:28.312Z,42.66
2019-05-09T14:55:01.934Z,42.77
2019-05-09T14:57:38.380Z,43.29
2019-05-09T15:00:13.051Z,43.73
2019-05-09T15:02:48.849Z,44.03
2019-05-09T15:05:23.147Z,44.34
2019-05-09T15:08:00.559Z,44.49
2019-05-09T15:10:35.295Z,44.98
2019-05-09T15:13:09.638Z,45.30
2019-05-09T15:15:43.789Z,45.46
2019-05-09T15:18:17.653Z,45.49
2019-05-09T15:20:53.485Z,46.12
2019-05-09T15:23:29.241Z,46.12
2019-05-09T15:26:03.104Z,46.40
2019-05-09T15:28:38.609Z,46.60
2019-05-09T15:31:12.701Z,46.79
2019-05-09T15:33:48.632Z,47.01
2019-05-09T15:36:22.381Z,47.12
2019-05-09T15:38:55.530Z,47.24
2019-05-09T15:41:29.662Z,47.43
2019-05-09T15:44:03.242Z,47.95
2019-05-09T15:46:42.025Z,47.69
2019-05-09T15:49:18.357Z,47.89
2019-05-09T15:51:51.803Z,48.14
2019-05-09T15:54:25.865Z,48.39
2019-05-09T15:57:01.983Z,48.60
2019-05-09T15:59:38.960Z,48.84
2019-05-09T16:02:13.588Z,48.96
2019-05-09T16:04:47.711Z,49.18
2019-05-09T16:07:21.095Z,49.39
2019-05-09T16:09:55.104Z,49.31
2019-05-09T16:12:29.561Z,49.67
2019-05-09T16:15:07.780Z,49.72
2019-05-09T16:17:43.635Z,50.03
2019-05-09T16:20:36.042Z,50.06
2019-05-09T16:22:57.129Z,50.17
2019-05-09T16:25:30.564Z,50.41
2019-05-09T16:28:08.009Z,50.57
2019-05-09T16:30:44.625Z,51.07
2019-05-09T16:33:21.959Z,51.21
2019-05-09T16:35:59.632Z,51.15
2019-05-09T16:38:42.977Z,51.22
2019-05-09T16:41:10.474Z,51.61
2019-05-09T16:43:44.770Z,51.69
2019-05-09T16:46:19.256Z,51.93
2019-05-09T16:48:55.217Z,51.88
2019-05-09T16:51:31.090Z,52.23
2019-05-09T16:54:07.499Z,52.38
2019-05-09T16:56:41.845Z,52.47
2019-05-09T16:59:18.197Z,52.60
2019-05-09T17:01:53.644Z,52.92
2019-05-09T17:04:29.523Z,52.97
2019-05-09T17:07:08.418Z,52.94
2019-05-09T17:09:45.231Z,53.21
2019-05-09T17:12:22.547Z,53.19
2019-05-09T17:14:59.735Z,53.36
2019-05-09T17:17:42.429Z,53.37
2019-05-09T17:20:19.888Z,53.53
2019-05-09T17:23:14.780Z,53.73
2019-05-09T17:25:49.932Z,53.59
2019-05-09T17:28:28.284Z,53.76
2019-05-09T17:31:02.138Z,53.85
2019-05-09T17:33:37.986Z,54.07
2019-05-09T17:36:13.529Z,54.03
2019-05-09T17:38:49.070Z,54.17
2019-05-09T17:41:23.793Z,54.28
2019-05-09T17:43:58.368Z,54.35
2019-05-09T17:46:39.921Z,54.44
2019-05-09T17:49:17.345Z,54.49
2019-05-09T17:51:52.363Z,54.65
2019-05-09T17:57:20.214Z,54.67
2019-05-09T17:59:59.423Z,54.81
2019-05-09T18:02:33.954Z,54.88
2019-05-09T18:05:09.483Z,54.96
2019-05-09T18:07:43.582Z,55.11
2019-05-09T18:10:18.324Z,55.24
2019-05-09T18:12:52.092Z,55.41
2019-05-09T18:15:28.229Z,55.46
2019-05-09T18:18:03.409Z,55.70
2019-05-09T18:20:38.534Z,55.72
2019-05-09T18:23:12.656Z,55.93
2019-05-09T18:25:49.456Z,55.92
2019-05-09T18:28:23.770Z,56.00
2019-05-09T18:31:00.492Z,56.31
2019-05-09T18:33:53.978Z,56.13
2019-05-09T18:36:30.501Z,56.16
2019-05-09T18:39:07.575Z,56.59
2019-05-09T18:41:41.381Z,56.71
2019-05-09T18:44:15.424Z,56.88
2019-05-09T18:46:48.968Z,56.84
2019-05-09T18:49:23.491Z,57.16
2019-05-09T18:52:03.712Z,57.01
2019-05-09T18:54:34.522Z,57.08
2019-05-09T18:57:09.085Z,57.05
2019-05-09T18:59:43.978Z,57.20
2019-05-09T19:02:18.375Z,57.28
2019-05-09T19:04:53.190Z,57.34
2019-05-09T19:07:28.258Z,57.54
2019-05-09T19:10:03.460Z,57.53
2019-05-09T19:12:38.114Z,57.54
2019-05-09T19:15:24.414Z,57.66
2019-05-09T19:18:00.935Z,57.75
2019-05-09T19:20:37.429Z,57.91
2019-05-09T19:23:12.210Z,57.97
2019-05-09T19:25:47.047Z,58.22
2019-05-09T19:28:24.053Z,58.46
2019-05-09T19:30:57.367Z,58.77
2019-05-09T19:33:31.723Z,58.87
2019-05-09T19:36:06.226Z,59.21
2019-05-09T19:38:40.822Z,58.96
2019-05-09T19:41:15.020Z,59.61
2019-05-09T19:43:49.147Z,59.46
2019-05-09T19:46:23.369Z,59.22
2019-05-09T19:48:57.608Z,59.48
2019-05-09T19:51:31.906Z,59.73
2019-05-09T19:54:06.485Z,59.85
2019-05-09T19:56:40.971Z,59.59
2019-05-09T19:59:15.805Z,59.61
2019-05-09T20:01:50.700Z,59.94
2019-05-09T20:04:25.146Z,60.21
2019-05-09T20:06:59.534Z,59.74
2019-05-09T20:09:35.882Z,60.10
2019-05-09T20:12:14.732Z,60.15
2019-05-09T20:14:50.596Z,60.18
2019-05-09T20:17:25.016Z,60.47
2019-05-09T20:19:59.527Z,60.47
2019-05-09T20:22:33.900Z,60.44
2019-05-09T20:25:08.620Z,60.94
2019-05-09T20:27:43.396Z,60.63
2019-05-09T20:30:18.143Z,60.72
2019-05-09T20:32:52.268Z,61.04
2019-05-09T20:35:25.601Z,60.91
2019-05-09T20:37:59.999Z,61.04
2019-05-09T20:40:34.545Z,61.09
2019-05-09T20:43:09.485Z,61.61
2019-05-09T20:45:44.185Z,61.38
2019-05-09T20:48:19.193Z,61.66
2019-05-09T20:50:53.781Z,61.57
2019-05-09T20:53:29.027Z,62.15
2019-05-09T20:56:03.819Z,61.98
2019-05-09T20:58:38.847Z,61.68
2019-05-09T21:01:13.977Z,61.92
2019-05-09T21:03:59.767Z,61.75
2019-05-09T21:06:25.059Z,61.67
2019-05-09T21:08:59.349Z,61.65
2019-05-09T21:11:33.937Z,61.73
2019-05-09T21:14:08.257Z,61.61
2019-05-09T21:16:42.707Z,61.50
2019-05-09T21:19:17.660Z,61.64
2019-05-09T21:21:52.444Z,61.44
2019-05-09T21:24:26.806Z,61.56
2019-05-09T21:27:01.196Z,61.35
2019-05-09T21:29:35.738Z,61.52
2019-05-09T21:32:10.307Z,61.55
2019-05-09T21:34:44.721Z,61.63
2019-05-09T21:37:18.902Z,61.70
2019-05-09T21:39:52.780Z,61.84
2019-05-09T21:42:27.008Z,62.30
2019-05-09T21:45:01.482Z,62.30
2019-05-09T21:47:35.993Z,62.40
2019-05-09T21:50:10.660Z,63.01
2019-05-09T21:52:45.072Z,62.75
2019-05-09T21:55:19.575Z,62.70
2019-05-09T21:57:54.096Z,62.94
2019-05-09T22:00:32.529Z,62.96
2019-05-09T22:03:07.175Z,62.93
2019-05-09T22:05:41.323Z,63.48
2019-05-09T22:08:15.727Z,63.13
2019-05-09T22:10:49.736Z,63.07
2019-05-09T22:13:23.840Z,63.52
2019-05-09T22:15:57.763Z,63.50
2019-05-09T22:18:31.858Z,63.31
2019-05-09T22:21:05.256Z,63.53
2019-05-09T22:23:39.443Z,63.48
2019-05-09T22:26:13.452Z,63.51
2019-05-09T22:28:47.694Z,63.46
2019-05-09T22:31:21.106Z,63.57
2019-05-09T22:33:55.235Z,63.53
2019-05-09T22:36:28.820Z,63.70
2019-05-09T22:39:02.870Z,63.54
2019-05-09T22:41:36.118Z,63.69
2019-05-09T22:44:10.215Z,63.72
2019-05-09T22:46:43.565Z,63.73
2019-05-09T22:49:17.593Z,63.93
2019-05-09T22:51:51.906Z,63.84
2019-05-09T22:54:26.028Z,63.90
2019-05-09T22:57:00.263Z,63.87
2019-05-09T22:59:34.263Z,63.86
2019-05-09T23:02:08.256Z,64.10
2019-05-09T23:04:41.413Z,64.32
2019-05-09T23:07:15.565Z,64.36
2019-05-09T23:09:49.871Z,64.72
2019-05-09T23:12:23.823Z,64.45
2019-05-09T23:14:58.004Z,64.37
2019-05-09T23:17:32.163Z,64.45
2019-05-09T23:20:09.472Z,64.50
2019-05-09T23:22:43.509Z,64.60
2019-05-09T23:25:16.691Z,64.58
2019-05-09T23:27:50.691Z,64.65
2019-05-09T23:30:24.917Z,64.67
2019-05-09T23:32:58.745Z,64.76
2019-05-09T23:35:32.712Z,64.74
2019-05-09T23:38:06.761Z,64.76
2019-05-09T23:40:39.891Z,64.69
2019-05-09T23:43:13.677Z,64.77
2019-05-09T23:45:47.735Z,64.79
2019-05-09T23:48:21.056Z,64.81
2019-05-09T23:50:55.174Z,64.88
2019-05-09T23:53:32.723Z,64.81
2019-05-09T23:56:24.685Z,64.75
2019-05-09T23:59:16.993Z,65.10
